^^
Station Historical Data
Daily Summary for October 4, 2017 Units:  English    Metric   Both
« Previous Day
Next Day »
Daily Weekly Monthly Yearly Custom
  High: Low: Average:
Temperature: 74.9 °F 48.9 °F 62.3 °F
Dew Point: 60.6 °F 47.5 °F 54.8 °F
Humidity: 97% 58% 78%
Wind Speed: 6.0mph 0.0mph 2.3mph
Wind Gust: 14.0mph - -
Wind- - SSW
Pressure: 30.56 in 30.19 in -
Precipitation: 0.00 in    
Historical Graphs
 
 
Tabular Data for October 4, 2017
Time Temperature Dew Point Pressure Wind Wind Speed Wind Gust Humidity Rainfall Rate (Hourly) Conditions
00:00 52.3 °F 47.9 °F 30.56 in Calm   1.0 mph 85% 0.00 in CLR
00:15 51.4 °F 47.7 °F 30.55 in Calm     87% 0.00 in CLR
00:30 51.2 °F 47.5 °F 30.55 in Calm     87% 0.00 in CLR
01:00 50.2 °F 47.7 °F 30.53 in Calm     91% 0.00 in CLR
02:15 51.9 °F 49.1 °F 30.52 in Calm   2.0 mph 90% 0.00 in CLR
02:30 52.1 °F 49.0 °F 30.52 in Calm   3.0 mph 89% 0.00 in CLR
02:45 51.2 °F 48.1 °F 30.51 in Calm     89% 0.00 in CLR
03:00 51.0 °F 48.5 °F 30.51 in Calm     91% 0.00 in CLR
03:15 51.4 °F 49.2 °F 30.50 in Calm   1.0 mph 92% 0.00 in CLR
03:30 51.6 °F 49.1 °F 30.50 in Calm   2.0 mph 91% 0.00 in CLR
03:45 51.5 °F 49.0 °F 30.49 in Calm   1.0 mph 91% 0.00 in CLR
04:00 51.4 °F 48.9 °F 30.49 in Calm   1.0 mph 91% 0.00 in CLR
04:15 51.5 °F 49.3 °F 30.49 in Calm   1.0 mph 92% 0.00 in CLR
04:30 51.6 °F 49.4 °F 30.49 in Calm   2.0 mph 92% 0.00 in CLR
04:45 51.5 °F 49.2 °F 30.49 in Calm     92% 0.00 in CLR
05:00 51.3 °F 49.0 °F 30.49 in Calm     92% 0.00 in CLR
05:15 51.2 °F 49.2 °F 30.48 in Calm   1.0 mph 93% 0.00 in CLR
05:30 51.1 °F 49.1 °F 30.48 in Calm   2.0 mph 93% 0.00 in CLR
05:45 50.9 °F 48.9 °F 30.48 in Calm   1.0 mph 93% 0.00 in CLR
06:00 50.6 °F 48.7 °F 30.47 in Calm   2.0 mph 93% 0.00 in CLR
06:15 50.6 °F 48.9 °F 30.47 in Calm   2.0 mph 94% 0.00 in CLR
06:30 50.4 °F 48.7 °F 30.47 in Calm     94% 0.00 in CLR
06:45 50.3 °F 48.6 °F 30.46 in Calm   1.0 mph 94% 0.00 in CLR
07:00 50.0 °F 48.3 °F 30.46 in Calm     94% 0.00 in CLR
07:15 49.7 °F 48.3 °F 30.46 in Calm     95% 0.00 in CLR
07:30 49.3 °F 47.6 °F 30.46 in Calm     94% 0.00 in CLR
07:45 48.9 °F 47.5 °F 30.46 in Calm     95% 0.00 in CLR
08:00 50.4 °F 49.3 °F 30.46 in Calm   1.0 mph 96% 0.00 in CLR
08:15 52.0 °F 51.1 °F 30.46 in SSW 1.0 mph 2.0 mph 97% 0.00 in CLR
08:30 53.0 °F 51.9 °F 30.46 in Calm   4.0 mph 96% 0.00 in CLR
08:45 54.2 °F 52.8 °F 30.46 in SSW 1.0 mph 4.0 mph 95% 0.00 in CLR
09:00 55.4 °F 53.2 °F 30.45 in SSW 2.0 mph 6.0 mph 92% 0.00 in CLR
09:15 56.9 °F 54.0 °F 30.45 in SW 1.0 mph 6.0 mph 90% 0.00 in CLR
09:30 58.4 °F 54.5 °F 30.45 in SSW 3.0 mph 7.0 mph 87% 0.00 in CLR
09:45 59.0 °F 54.2 °F 30.44 in SW 3.0 mph 12.0 mph 84% 0.00 in CLR
10:00 59.5 °F 54.7 °F 30.44 in SSW 6.0 mph 12.0 mph 84% 0.00 in CLR
10:15 60.0 °F 54.5 °F 30.44 in SSW 3.0 mph 12.0 mph 82% 0.00 in CLR
10:30 61.4 °F 55.2 °F 30.43 in SSW 3.0 mph 10.0 mph 80% 0.00 in CLR
10:45 62.1 °F 55.5 °F 30.42 in SW 3.0 mph 8.0 mph 79% 0.00 in CLR
11:00 63.2 °F 55.9 °F 30.41 in SSW 2.0 mph 7.0 mph 77% 0.00 in CLR
11:15 63.8 °F 56.1 °F 30.41 in SW 3.0 mph 9.0 mph 76% 0.00 in CLR
11:30 65.5 °F 57.0 °F 30.41 in SSW 2.0 mph 9.0 mph 74% 0.00 in CLR
11:45 66.2 °F 56.9 °F 30.40 in SSW 6.0 mph 12.0 mph 72% 0.00 in CLR
12:00 66.3 °F 56.6 °F 30.39 in SW 5.0 mph 10.0 mph 71% 0.00 in CLR
12:15 66.9 °F 57.6 °F 30.38 in SW 6.0 mph 12.0 mph 72% 0.00 in CLR
12:30 67.6 °F 57.9 °F 30.38 in SSW 5.0 mph 12.0 mph 71% 0.00 in CLR
12:45 68.3 °F 57.3 °F 30.37 in SSW 6.0 mph 12.0 mph 68% 0.00 in CLR
13:00 69.2 °F 58.2 °F 30.36 in SSW 2.0 mph 12.0 mph 68% 0.00 in CLR
13:15 69.9 °F 58.4 °F 30.34 in SSW 3.0 mph 10.0 mph 67% 0.00 in CLR
13:30 70.7 °F 57.9 °F 30.33 in South 5.0 mph 10.0 mph 64% 0.00 in CLR
13:45 71.2 °F 58.0 °F 30.32 in SSE 3.0 mph 12.0 mph 63% 0.00 in CLR
14:00 71.6 °F 58.3 °F 30.31 in SW 3.0 mph 12.0 mph 63% 0.00 in CLR
14:15 72.7 °F 58.9 °F 30.30 in SW 3.0 mph 10.0 mph 62% 0.00 in CLR
14:30 73.2 °F 58.5 °F 30.29 in SSW 6.0 mph 12.0 mph 60% 0.00 in CLR
14:45 73.3 °F 58.6 °F 30.29 in SSW 5.0 mph 13.0 mph 60% 0.00 in CLR
15:00 73.7 °F 58.9 °F 30.28 in South 6.0 mph 12.0 mph 60% 0.00 in CLR
15:15 73.8 °F 59.1 °F 30.27 in South 5.0 mph 12.0 mph 60% 0.00 in CLR
15:30 74.2 °F 58.9 °F 30.26 in SSW 6.0 mph 14.0 mph 59% 0.00 in CLR
16:00 74.5 °F 59.2 °F 30.25 in SSW 3.0 mph 13.0 mph 59% 0.00 in CLR
16:15 74.9 °F 59.1 °F 30.25 in SSW 3.0 mph 12.0 mph 58% 0.00 in CLR
16:30 74.9 °F 59.1 °F 30.25 in SW 5.0 mph 12.0 mph 58% 0.00 in CLR
16:45 74.9 °F 59.6 °F 30.24 in SW 5.0 mph 10.0 mph 59% 0.00 in CLR
17:00 74.6 °F 59.3 °F 30.23 in SW 5.0 mph 13.0 mph 59% 0.00 in CLR
17:15 74.7 °F 59.4 °F 30.23 in SSW 3.0 mph 12.0 mph 59% 0.00 in CLR
17:30 74.4 °F 59.6 °F 30.23 in SW 2.0 mph 10.0 mph 60% 0.00 in CLR
17:45 74.1 °F 60.3 °F 30.23 in SW 2.0 mph 12.0 mph 62% 0.00 in CLR
18:00 73.5 °F 60.6 °F 30.23 in SW 1.0 mph 6.0 mph 64% 0.00 in CLR
18:15 72.4 °F 60.4 °F 30.23 in Calm   4.0 mph 66% 0.00 in CLR
18:30 70.5 °F 59.9 °F 30.22 in South 1.0 mph 3.0 mph 69% 0.00 in CLR
18:45 68.8 °F 59.8 °F 30.22 in SSE 1.0 mph 2.0 mph 73% 0.00 in CLR
19:00 67.9 °F 59.3 °F 30.22 in SSW 1.0 mph 3.0 mph 74% 0.00 in CLR
19:15 67.7 °F 59.1 °F 30.22 in SSW 2.0 mph 4.0 mph 74% 0.00 in CLR
19:30 68.7 °F 58.9 °F 30.22 in SSW 3.0 mph 12.0 mph 71% 0.00 in CLR
19:45 69.0 °F 58.8 °F 30.22 in SSW 3.0 mph 9.0 mph 70% 0.00 in CLR
20:00 69.1 °F 58.9 °F 30.22 in SSW 3.0 mph 9.0 mph 70% 0.00 in CLR
20:15 69.3 °F 58.7 °F 30.22 in SSW 3.0 mph 13.0 mph 69% 0.00 in CLR
20:30 68.8 °F 58.6 °F 30.22 in SSE 3.0 mph 10.0 mph 70% 0.00 in CLR
20:45 68.6 °F 58.8 °F 30.21 in SSW 5.0 mph 13.0 mph 71% 0.00 in CLR
21:00 68.7 °F 58.9 °F 30.22 in South 3.0 mph 10.0 mph 71% 0.00 in CLR
21:15 68.7 °F 58.9 °F 30.22 in South 3.0 mph 14.0 mph 71% 0.00 in CLR
21:30 68.4 °F 59.0 °F 30.21 in SSW 6.0 mph 12.0 mph 72% 0.00 in CLR
21:45 67.9 °F 58.9 °F 30.21 in SSW 6.0 mph 10.0 mph 73% 0.00 in CLR
22:00 67.7 °F 58.7 °F 30.20 in SSW 2.0 mph 9.0 mph 73% 0.00 in CLR
22:15 67.4 °F 58.5 °F 30.20 in SW 1.0 mph 13.0 mph 73% 0.00 in CLR
22:45 66.9 °F 58.0 °F 30.20 in SSW 3.0 mph 12.0 mph 73% 0.00 in CLR
23:00 66.8 °F 58.2 °F 30.19 in SSW 5.0 mph 12.0 mph 74% 0.00 in CLR
23:45 65.8 °F 58.0 °F 30.19 in SSW 5.0 mph 12.0 mph 76% 0.00 in CLR
TarryTown NY Weather
Compliments of Weather Underground - 1.5 mb